Justice — WDG2184 — position and weather

sailwx.info

Track history (hours):
 
Tides and Currents Weather Stations Pressure Air Temp Water Temp Dewpoint Dewpoint Depression Visibility Wind Speed Wind Dir Waves Ship Positions

Justice

Owner: Boston Towing & Transportation, Boston, MA. More information available from US FCC via Universal Licensing System and Coast Guard Vessel Documentation Center.

Last reported at 2018-Feb-25 15:30 UTC. Time now 2018-Feb-25 15:59 UTC.
Position N 42°23' W 071°03'.

Length 30 m; draft 5.8 m.

Type: Tug. MMSI: 367513010.

Date/timePositionNaut miles runAvg speedWind from/ knotsBaromVisibWave heightAir tempDewpointWater temp
2018-Feb-25 15:30N 42°23' W 071°03'0 0.0
2018-Feb-25 15:00N 42°23' W 071°03'1 1.1
2018-Feb-25 14:30N 42°22' W 071°03'4 8.9
2018-Feb-25 14:00N 42°20' W 070°58'4 8.2
2018-Feb-25 13:30N 42°16' W 070°56'2 5.0
2018-Feb-25 13:00N 42°15' W 070°59'3 6.6
2018-Feb-25 12:30N 42°17' W 070°56'3 6.7
2018-Feb-25 12:00N 42°20' W 070°58'2 4.7
2018-Feb-25 11:30N 42°21' W 071°01'1 2.6
2018-Feb-25 11:00N 42°20' W 070°60'1 2.7
2018-Feb-25 10:30N 42°21' W 071°01'0 0.5
2018-Feb-25 10:00N 42°21' W 071°02'0 0.0
2018-Feb-25 09:30N 42°21' W 071°02'0 0.9
2018-Feb-25 09:00N 42°21' W 071°02'2 4.1
2018-Feb-25 08:31N 42°23' W 071°02'1 1.9
2018-Feb-25 08:00N 42°24' W 071°01'1 1.0
2018-Feb-25 07:30N 42°23' W 071°01'1 2.5
2018-Feb-25 07:00N 42°23' W 071°03'0 0.0
2018-Feb-25 06:30N 42°23' W 071°03'0 0.0
2018-Feb-25 06:00N 42°23' W 071°03'0 0.0
2018-Feb-25 05:31N 42°23' W 071°03'0 0.0
2018-Feb-25 05:00N 42°23' W 071°03'0 0.0
2018-Feb-25 04:30N 42°23' W 071°03'0 0.0
2018-Feb-25 04:00N 42°23' W 071°03'0 0.0
2018-Feb-25 03:30N 42°23' W 071°03'0 0.0
2018-Feb-25 03:00N 42°23' W 071°03'0 0.0
2018-Feb-25 02:30N 42°23' W 071°03'0 0.0
2018-Feb-25 02:00N 42°23' W 071°03'0 0.0
2018-Feb-25 01:30N 42°23' W 071°03'0 0.0
2018-Feb-25 01:00N 42°23' W 071°03'0 0.2
2018-Feb-25 00:30N 42°23' W 071°03'1 1.7
2018-Feb-25 00:01N 42°23' W 071°02'1 2.8
2018-Feb-24 23:30N 42°22' W 071°03'2 3.6
2018-Feb-24 23:00N 42°21' W 071°01'0 0.5
2018-Feb-24 22:30N 42°21' W 071°01'3 5.0
2018-Feb-24 22:00N 42°23' W 071°03'0 0.0
2018-Feb-24 21:30N 42°23' W 071°03'0 0.0
2018-Feb-24 21:00N 42°23' W 071°03'0 0.0
2018-Feb-24 20:30N 42°23' W 071°03'0 0.0
2018-Feb-24 20:00N 42°23' W 071°03'0 0.0
2018-Feb-24 19:30N 42°23' W 071°03'0 0.0
2018-Feb-24 19:00N 42°23' W 071°03'0 0.0
2018-Feb-24 18:28N 42°23' W 071°03'0 0.0
2018-Feb-24 18:00N 42°23' W 071°03'0 0.1
2018-Feb-24 17:30N 42°23' W 071°03'0 0.0
2018-Feb-24 17:00N 42°23' W 071°03'0 0.0
2018-Feb-24 16:30N 42°23' W 071°03'0 0.1
2018-Feb-24 16:00N 42°23' W 071°03'1 1.5
2018-Feb-24 15:30N 42°22' W 071°03'4 6.9
2018-Feb-24 15:00N 42°20' W 070°59'4 8.9
2018-Feb-24 14:30N 42°19' W 070°53'4 7.5
2018-Feb-24 14:00N 42°16' W 070°56'2 4.6
2018-Feb-24 13:30N 42°14' W 070°58'1 1.0
2018-Feb-24 13:00N 42°15' W 070°58'4 8.6
2018-Feb-24 12:30N 42°19' W 070°55'4 7.8
2018-Feb-24 12:00N 42°20' W 071°00'1 1.4
2018-Feb-24 11:30N 42°21' W 071°01'1 2.5
2018-Feb-24 11:00N 42°20' W 070°60'2 3.2
2018-Feb-24 10:30N 42°21' W 071°02'0 0.5
2018-Feb-24 10:00N 42°21' W 071°01'3 5.3
2018-Feb-24 09:30N 42°23' W 071°03'2 3.2
2018-Feb-24 09:00N 42°24' W 071°01'1 2.9
2018-Feb-24 08:30N 42°23' W 071°02'0 0.6
2018-Feb-24 08:00N 42°23' W 071°03'0 0.0
2018-Feb-24 07:30N 42°23' W 071°03'0 0.0
2018-Feb-24 07:00N 42°23' W 071°03'0 0.0
2018-Feb-24 06:30N 42°23' W 071°03'0 0.0
2018-Feb-24 06:00N 42°23' W 071°03'0 0.0
2018-Feb-24 05:30N 42°23' W 071°03'0 0.0
2018-Feb-24 05:00N 42°23' W 071°03'0 0.0
2018-Feb-24 04:30N 42°23' W 071°03'0 0.6
2018-Feb-24 04:00N 42°23' W 071°03'0 0.5
2018-Feb-24 03:30N 42°23' W 071°03'0 0.4
2018-Feb-24 03:00N 42°23' W 071°03'0 0.4
2018-Feb-24 02:30N 42°23' W 071°03'0 0.0
2018-Feb-24 02:00N 42°23' W 071°03'0 0.0
2018-Feb-24 01:30N 42°23' W 071°03'0 0.0
2018-Feb-24 01:00N 42°23' W 071°03'0 0.0
2018-Feb-24 00:30N 42°23' W 071°03'0 0.0
2018-Feb-24 00:00N 42°23' W 071°03'0 0.0
2018-Feb-23 23:30N 42°23' W 071°03'0 0.0
2018-Feb-23 23:00N 42°23' W 071°03'0 0.0
2018-Feb-23 22:31N 42°23' W 071°03'1 2.8
2018-Feb-23 22:00N 42°21' W 071°02'5 9.9
2018-Feb-23 21:30N 42°20' W 070°56'4 8.4
2018-Feb-23 21:00N 42°15' W 070°56'2 3.1
2018-Feb-23 20:30N 42°15' W 070°58'0 0.0
2018-Feb-23 20:00N 42°15' W 070°58'0 0.0
2018-Feb-23 19:30N 42°15' W 070°58'1 1.0
2018-Feb-23 19:00N 42°15' W 070°58'0 0.4
2018-Feb-23 18:30N 42°15' W 070°58'0 0.2
2018-Feb-23 18:00N 42°15' W 070°58'4 8.5
2018-Feb-23 17:30N 42°19' W 070°55'4 7.0
2018-Feb-23 17:00N 42°20' W 070°60'3 6.9
2018-Feb-23 16:30N 42°23' W 071°03'0 0.0
2018-Feb-23 16:00N 42°23' W 071°03'0 0.0
2018-Feb-23 15:30N 42°23' W 071°03'0 0.0
2018-Feb-23 15:01N 42°23' W 071°03'1 2.7
2018-Feb-23 14:30N 42°24' W 071°01'0 0.6
2018-Feb-23 14:00N 42°24' W 071°01'0 0.6
2018-Feb-23 13:31N 42°24' W 071°01'0 0.0
2018-Feb-23 13:00N 42°24' W 071°01'2 3.0
2018-Feb-23 12:30N 42°23' W 071°03'0 0.9
2018-Feb-23 12:00N 42°22' W 071°03'0 1.0
2018-Feb-23 11:30N 42°23' W 071°03'0 0.0
2018-Feb-23 11:00N 42°23' W 071°03'0 0.0
2018-Feb-23 10:30N 42°23' W 071°03'0 0.0
2018-Feb-23 10:00N 42°23' W 071°03'0 0.0
2018-Feb-23 09:30N 42°23' W 071°03'0 0.0
2018-Feb-23 09:00N 42°23' W 071°03'0 0.0
2018-Feb-23 08:30N 42°23' W 071°03'0 0.0
2018-Feb-23 08:00N 42°23' W 071°03'0 0.0
2018-Feb-23 07:30N 42°23' W 071°03'0 0.0
2018-Feb-23 07:01N 42°23' W 071°03'0 0.0
2018-Feb-23 06:30N 42°23' W 071°03'0 0.0
2018-Feb-23 06:00N 42°23' W 071°03'0 0.0
2018-Feb-23 05:29N 42°23' W 071°03'0 0.0
2018-Feb-23 05:00N 42°23' W 071°03'0 0.0
2018-Feb-23 04:30N 42°23' W 071°03'0 0.0
2018-Feb-23 04:00N 42°23' W 071°03'0 0.0
2018-Feb-23 03:30N 42°23' W 071°03'0 0.0
2018-Feb-23 03:00N 42°23' W 071°03'0 0.0
2018-Feb-23 02:30N 42°23' W 071°03'0 0.0
2018-Feb-23 02:00N 42°23' W 071°03'0 0.6
2018-Feb-23 01:30N 42°23' W 071°02'1 2.8
2018-Feb-23 01:00N 42°24' W 071°01'1 2.2
2018-Feb-23 00:31N 42°23' W 071°02'1 2.5
2018-Feb-23 00:00N 42°23' W 071°03'0 0.0
2018-Feb-22 23:30N 42°23' W 071°03'0 0.0
2018-Feb-22 23:00N 42°23' W 071°03'1 1.6
2018-Feb-22 22:30N 42°23' W 071°03'0 0.0
2018-Feb-22 21:59N 42°23' W 071°03'0 0.1
2018-Feb-22 21:30N 42°23' W 071°03'2 4.9
2018-Feb-22 21:00N 42°21' W 071°01'5 9.6
2018-Feb-22 20:30N 42°19' W 070°55'5 9.1
2018-Feb-22 20:00N 42°15' W 070°57'1 1.9
2018-Feb-22 19:30N 42°14' W 070°58'0 0.6
2018-Feb-22 18:59N 42°15' W 070°58'2 3.3
2018-Feb-22 18:30N 42°16' W 070°56'3 6.1
2018-Feb-22 18:00N 42°18' W 070°55'7 0.2
2018-Feb-21 02:30N 42°23' W 071°03'0 0.0
2018-Feb-21 02:00N 42°23' W 071°03'0 0.0
2018-Feb-21 01:30N 42°23' W 071°03'0 0.7
2018-Feb-21 01:00N 42°23' W 071°02'1 2.2
2018-Feb-21 00:30N 42°24' W 071°01'0 0.2
2018-Feb-21 00:00N 42°24' W 071°01'2 3.1
2018-Feb-20 23:30N 42°23' W 071°03'0 0.3
2018-Feb-20 23:00N 42°23' W 071°03'0 0.0
2018-Feb-20 22:30N 42°23' W 071°03'0 0.0
2018-Feb-20 22:00N 42°23' W 071°03'0 0.0
2018-Feb-20 21:30N 42°23' W 071°03'1 2.1
2018-Feb-20 21:00N 42°23' W 071°01'1 1.3
2018-Feb-20 20:30N 42°24' W 071°01'2 3.2
2018-Feb-20 20:00N 42°23' W 071°03'0 0.3
2018-Feb-20 19:29N 42°23' W 071°03'0 0.0
2018-Feb-20 19:00N 42°23' W 071°03'0 0.0
2018-Feb-20 18:30N 42°23' W 071°03'0 0.0
2018-Feb-20 18:00N 42°23' W 071°03'0 0.0
2018-Feb-20 17:30N 42°23' W 071°03'0 0.0
2018-Feb-20 16:59N 42°23' W 071°03'0 0.0
2018-Feb-20 16:28N 42°23' W 071°03'0 0.0
2018-Feb-20 15:59N 42°23' W 071°03'0 0.0
2018-Feb-20 15:25N 42°23' W 071°03'0 0.0
2018-Feb-20 14:57N 42°23' W 071°03'0 0.0
2018-Feb-20 14:30N 42°23' W 071°03'0 0.1
2018-Feb-20 14:00N 42°23' W 071°03'0 0.0
2018-Feb-20 13:30N 42°23' W 071°03'0 0.0
2018-Feb-20 13:00N 42°23' W 071°03'0 0.0
2018-Feb-20 12:30N 42°23' W 071°03'0 0.0
2018-Feb-20 12:00N 42°23' W 071°03'0 0.1
2018-Feb-20 11:30N 42°23' W 071°03'0 0.0
2018-Feb-20 11:00N 42°23' W 071°03'0 0.0
2018-Feb-20 10:30N 42°23' W 071°03'0 0.0
2018-Feb-20 10:00N 42°23' W 071°03'0 0.0
2018-Feb-20 09:30N 42°23' W 071°03'0 0.0
2018-Feb-20 09:00N 42°23' W 071°03'0 0.0
2018-Feb-20 08:30N 42°23' W 071°03'0 0.0
2018-Feb-20 08:00N 42°23' W 071°03'0 0.0
2018-Feb-20 07:30N 42°23' W 071°03'0 0.0
2018-Feb-20 07:00N 42°23' W 071°03'0 0.0
2018-Feb-20 06:30N 42°23' W 071°03'0 0.0
2018-Feb-20 06:00N 42°23' W 071°03'3 5.0
2018-Feb-20 05:29N 42°21' W 071°01'0 0.4
2018-Feb-20 04:54N 42°21' W 071°01'0 0.0
2018-Feb-20 01:43N 42°21' W 071°01'2 7.5
2018-Feb-20 01:30N 42°22' W 071°03'1 1.7
2018-Feb-20 00:58N 42°23' W 071°03'0 0.0
2018-Feb-20 00:30N 42°23' W 071°03'0 0.0
2018-Feb-20 00:00N 42°23' W 071°03'0 0.0
2018-Feb-19 23:30N 42°23' W 071°03'0 0.0
2018-Feb-19 23:00N 42°23' W 071°03'0 0.0
2018-Feb-19 22:30N 42°23' W 071°03'0 0.0
2018-Feb-19 21:59N 42°23' W 071°03'0 0.0
2018-Feb-19 21:30N 42°23' W 071°03'0 0.0
2018-Feb-19 21:00N 42°23' W 071°03'0 0.0
2018-Feb-19 20:30N 42°23' W 071°03'0 0.0
2018-Feb-19 20:00N 42°23' W 071°03'0 0.0
2018-Feb-19 19:30N 42°23' W 071°03'1 1.3
2018-Feb-19 19:00N 42°22' W 071°03'0 0.3
2018-Feb-19 18:30N 42°22' W 071°03'0 0.1
2018-Feb-19 18:00N 42°22' W 071°03'1 1.5
2018-Feb-19 17:30N 42°23' W 071°03'0 0.0
2018-Feb-19 17:00N 42°23' W 071°03'2 3.3
2018-Feb-19 16:30N 42°24' W 071°01'0 0.6
2018-Feb-19 16:00N 42°24' W 071°01'1 2.9
2018-Feb-19 15:30N 42°23' W 071°03'2 3.3
2018-Feb-19 15:00N 42°21' W 071°02'2 3.1
2018-Feb-19 14:30N 42°23' W 071°03'0 0.0
2018-Feb-19 14:00N 42°23' W 071°03'0 0.0
2018-Feb-19 13:30N 42°23' W 071°03'0 0.0
2018-Feb-19 12:59N 42°23' W 071°03'0 0.0
2018-Feb-19 12:30N 42°23' W 071°03'0 0.0
2018-Feb-19 12:00N 42°23' W 071°03'0 0.0
2018-Feb-19 11:30N 42°23' W 071°03'0 0.0
2018-Feb-19 11:00N 42°23' W 071°03'0 0.0
2018-Feb-19 10:30N 42°23' W 071°03'0 0.0
2018-Feb-19 09:59N 42°23' W 071°03'0 0.0
2018-Feb-19 09:30N 42°23' W 071°03'0 0.0
2018-Feb-19 09:00N 42°23' W 071°03'0 0.0
2018-Feb-19 08:30N 42°23' W 071°03'0 0.0
2018-Feb-19 08:00N 42°23' W 071°03'0 0.0
2018-Feb-19 07:30N 42°23' W 071°03'0 0.0
2018-Feb-19 07:00N 42°23' W 071°03'0 0.0
2018-Feb-19 06:30N 42°23' W 071°03'0 0.0
2018-Feb-19 06:00N 42°23' W 071°03'3 5.0
2018-Feb-19 05:30N 42°21' W 071°01'1 1.8
2018-Feb-19 05:00N 42°20' W 070°60'1 1.2
2018-Feb-19 04:30N 42°20' W 071°01'0 0.7
2018-Feb-19 04:00N 42°21' W 071°01'3 5.0
2018-Feb-19 03:30N 42°23' W 071°03'0 0.0
2018-Feb-19 03:00N 42°23' W 071°03'0 0.0
2018-Feb-19 02:30N 42°23' W 071°03'0 0.0
2018-Feb-19 02:00N 42°23' W 071°03'0 0.0
2018-Feb-19 01:30N 42°23' W 071°03'0 0.0
2018-Feb-19 01:00N 42°23' W 071°03'0 0.0
2018-Feb-19 00:30N 42°23' W 071°03'0 0.0
2018-Feb-19 00:00N 42°23' W 071°03'0 0.0
2018-Feb-18 23:30N 42°23' W 071°03'0 0.0
2018-Feb-18 23:00N 42°23' W 071°03'0 0.0
2018-Feb-18 22:30N 42°23' W 071°03'0 0.0
2018-Feb-18 22:00N 42°23' W 071°03'0 0.0
2018-Feb-18 21:30N 42°23' W 071°03'0 0.0
2018-Feb-18 21:00N 42°23' W 071°03'0 0.0
2018-Feb-18 20:30N 42°23' W 071°03'0 0.0
2018-Feb-18 20:00N 42°23' W 071°03'0 0.0
2018-Feb-18 19:30N 42°23' W 071°03'0 0.0
2018-Feb-18 19:00N 42°23' W 071°03'0 0.0
2018-Feb-18 18:30N 42°23' W 071°03'0 0.0
2018-Feb-18 18:00N 42°23' W 071°03'1 2.0
2018-Feb-18 17:30N 42°23' W 071°04'0 0.0
2018-Feb-18 17:00N 42°23' W 071°04'0 0.1
2018-Feb-18 16:30N 42°23' W 071°04'1 2.2
2018-Feb-18 16:00N 42°22' W 071°03'0 0.9
2018-Feb-18 15:30N 42°23' W 071°03'0 0.0
2018-Feb-18 15:00N 42°23' W 071°03'0 0.0
2018-Feb-18 14:30N 42°23' W 071°03'1 1.7
2018-Feb-18 14:00N 42°23' W 071°04'0 0.3
2018-Feb-18 13:30N 42°23' W 071°04'1 2.0
2018-Feb-18 13:00N 42°23' W 071°03'0 0.0
2018-Feb-18 12:30N 42°23' W 071°03'0 0.0
2018-Feb-18 12:00N 42°23' W 071°03'0 0.0
2018-Feb-18 11:30N 42°23' W 071°03'0 0.0
2018-Feb-18 11:00N 42°23' W 071°03'0 0.0
2018-Feb-18 10:30N 42°23' W 071°03'0 0.0
2018-Feb-18 10:00N 42°23' W 071°03'0 0.0
2018-Feb-18 09:30N 42°23' W 071°03'0 0.0
2018-Feb-18 09:00N 42°23' W 071°03'0 0.0
2018-Feb-18 08:30N 42°23' W 071°03'0 0.0
2018-Feb-18 08:00N 42°23' W 071°03'0 0.0
2018-Feb-18 07:30N 42°23' W 071°03'0 0.0
2018-Feb-18 07:00N 42°23' W 071°03'0 0.0
2018-Feb-18 06:30N 42°23' W 071°03'3 4.8
2018-Feb-18 05:59N 42°21' W 071°01'2 2.9
2018-Feb-18 05:26N 42°20' W 070°59'1 2.0
2018-Feb-18 04:43N 42°21' W 070°58'0 0.0
2018-Feb-18 04:29N 42°21' W 070°58'2 4.9
2018-Feb-18 04:00N 42°21' W 071°01'1 2.3
2018-Feb-18 03:29N 42°21' W 071°02'1 3.1
2018-Feb-18 03:00N 42°23' W 071°03'0 0.0
2018-Feb-18 02:30N 42°23' W 071°03'0 0.0
2018-Feb-18 02:00N 42°23' W 071°03'0 0.0
2018-Feb-18 01:30N 42°23' W 071°03'0 0.0
2018-Feb-18 01:00N 42°23' W 071°03'0 0.9
2018-Feb-18 00:30N 42°23' W 071°03'0 0.3
2018-Feb-18 00:00N 42°23' W 071°03'2 4.4
2018-Feb-17 23:30N 42°21' W 071°02'4 7.5
2018-Feb-17 22:59N 42°20' W 070°57'4 9.3
2018-Feb-17 22:30N 42°16' W 070°56'2 2.7
2018-Feb-17 21:51N 42°15' W 070°58'0 0.1
2018-Feb-17 19:59N 42°15' W 070°58'4 7.0
2018-Feb-17 19:23N 42°19' W 070°56'3 6.7
2018-Feb-17 19:00N 42°20' W 070°59'2 2.8
2018-Feb-17 18:14N 42°21' W 071°01'0 0.0
2018-Feb-17 17:50N 42°21' W 071°01'0 0.0
2018-Feb-17 17:29N 42°21' W 071°01'0 0.0
2018-Feb-17 16:51N 42°21' W 071°01'0 0.7
2018-Feb-17 16:28N 42°21' W 071°01'2 3.5
2018-Feb-17 16:00N 42°20' W 070°59'2 3.4
2018-Feb-17 15:30N 42°21' W 071°01'0 0.5
2018-Feb-17 15:00N 42°21' W 071°01'2 3.1
2018-Feb-17 14:29N 42°20' W 070°59'4 7.6
2018-Feb-17 14:00N 42°22' W 071°03'1 2.5
2018-Feb-17 13:30N 42°23' W 071°04'0 0.1
2018-Feb-17 13:00N 42°23' W 071°04'1 2.3
2018-Feb-17 12:30N 42°22' W 071°03'0 0.8
2018-Feb-17 12:00N 42°23' W 071°03'0 0.0
2018-Feb-17 11:30N 42°23' W 071°03'0 0.1
2018-Feb-17 11:00N 42°23' W 071°03'2 4.1
2018-Feb-17 10:30N 42°21' W 071°01'2 4.1
2018-Feb-17 09:55N 42°20' W 070°58'4 8.9
2018-Feb-17 09:30N 42°22' W 071°03'2 4.0
2018-Feb-17 08:59N 42°24' W 071°01'0 0.5
2018-Feb-17 08:30N 42°24' W 071°01'1 2.5
2018-Feb-17 08:00N 42°23' W 071°02'0 0.7
2018-Feb-17 07:30N 42°23' W 071°03'1 2.7
2018-Feb-17 07:00N 42°24' W 071°01'1 2.6
2018-Feb-17 06:31N 42°23' W 071°03'3 6.1
2018-Feb-17 06:00N 42°20' W 071°00'2 2.8
2018-Feb-17 05:26N 42°20' W 070°58'0 0.1
2018-Feb-17 04:43N 42°20' W 070°58'0 0.1
2018-Feb-17 04:30N 42°20' W 070°58'0 0.0
2018-Feb-17 03:58N 42°20' W 070°58'0 0.1
2018-Feb-17 03:30N 42°20' W 070°58'0 0.0
2018-Feb-17 03:00N 42°20' W 070°58'0 0.0
2018-Feb-17 02:30N 42°20' W 070°58'0 0.0
2018-Feb-17 01:55N 42°20' W 070°58'0 0.1
2018-Feb-17 01:30N 42°20' W 070°58'0 0.0
2018-Feb-17 00:29N 42°20' W 070°58'0 0.2
2018-Feb-17 00:00N 42°20' W 070°58'3 6.2
2018-Feb-16 23:30N 42°21' W 071°02'2 3.8
2018-Feb-16 23:00N 42°23' W 071°03'0 0.0
2018-Feb-16 22:29N 42°23' W 071°03'0 0.0
2018-Feb-16 22:00N 42°23' W 071°03'0 0.6
2018-Feb-16 21:30N 42°23' W 071°03'1 2.8
2018-Feb-16 21:00N 42°24' W 071°01'1 1.3
2018-Feb-16 20:30N 42°23' W 071°02'2 3.3
2018-Feb-16 20:00N 42°21' W 071°02'1 2.9
2018-Feb-16 19:30N 42°23' W 071°03'2 4.9
2018-Feb-16 19:00N 42°21' W 071°01'0 0.2
2018-Feb-16 18:28N 42°21' W 071°01'1 1.2
2018-Feb-16 18:00N 42°20' W 071°00'1 1.7
2018-Feb-16 17:30N 42°20' W 070°59'2 3.8
2018-Feb-16 17:00N 42°21' W 071°02'3 5.5
2018-Feb-16 16:30N 42°23' W 071°04'0 0.1
2018-Feb-16 16:00N 42°23' W 071°04'0 0.0
2018-Feb-16 15:30N 42°23' W 071°04'1 1.6
2018-Feb-16 15:00N 42°23' W 071°03'2 3.9
2018-Feb-16 14:30N 42°21' W 071°02'3 6.5
2018-Feb-16 14:01N 42°20' W 070°58'3 5.2
2018-Feb-16 13:29N 42°21' W 071°01'2 4.3
2018-Feb-16 13:00N 42°23' W 071°03'0 0.0
2018-Feb-16 12:30N 42°23' W 071°03'1 1.6
2018-Feb-16 11:59N 42°23' W 071°02'1 1.5
2018-Feb-16 11:30N 42°23' W 071°02'1 1.1
2018-Feb-16 11:00N 42°23' W 071°03'1 1.6
2018-Feb-16 10:30N 42°22' W 071°03'1 2.1
2018-Feb-16 10:00N 42°23' W 071°04'0 0.3
2018-Feb-16 09:30N 42°23' W 071°04'0 0.1
2018-Feb-16 09:00N 42°23' W 071°04'1 2.0
2018-Feb-16 08:30N 42°23' W 071°03'0 0.0
2018-Feb-16 08:00N 42°23' W 071°03'0 0.0
2018-Feb-16 07:30N 42°23' W 071°03'0 0.0
2018-Feb-16 07:00N 42°23' W 071°03'0 0.0
2018-Feb-16 06:30N 42°23' W 071°03'0 0.0
2018-Feb-16 06:00N 42°23' W 071°03'0 0.0
2018-Feb-16 05:30N 42°23' W 071°03'0 0.0
2018-Feb-16 05:00N 42°23' W 071°03'0 0.0
2018-Feb-16 04:30N 42°23' W 071°03'0 0.0
2018-Feb-16 04:00N 42°23' W 071°03'0 0.0
2018-Feb-16 03:30N 42°23' W 071°03'0 0.0
2018-Feb-16 03:00N 42°23' W 071°03'0 0.0
2018-Feb-16 02:30N 42°23' W 071°03'0 0.0
2018-Feb-16 02:00N 42°23' W 071°03'0 0.0
2018-Feb-16 01:30N 42°23' W 071°03'0 0.0
2018-Feb-16 01:00N 42°23' W 071°03'0 0.6
2018-Feb-16 00:30N 42°23' W 071°03'0 0.0
2018-Feb-16 00:00N 42°23' W 071°03'0 0.0
2018-Feb-15 23:30N 42°23' W 071°03'0 0.5
2018-Feb-15 23:00N 42°23' W 071°03'0 0.2
2018-Feb-15 22:30N 42°23' W 071°03'0 0.0
2018-Feb-15 22:00N 42°23' W 071°03'0 0.0
2018-Feb-15 21:30N 42°23' W 071°03'0 0.0
2018-Feb-15 21:00N 42°23' W 071°03'0 0.0
2018-Feb-15 20:30N 42°23' W 071°03'0 0.0
2018-Feb-15 20:00N 42°23' W 071°03'3 6.0
2018-Feb-15 19:30N 42°20' W 071°00'4 8.5
2018-Feb-15 19:00N 42°21' W 070°55'4 8.8
2018-Feb-15 18:30N 42°24' W 070°51'1 2.5
2018-Feb-15 18:00N 42°25' W 070°50'0 0.3
2018-Feb-15 17:30N 42°25' W 070°50'0 0.2
2018-Feb-15 17:00N 42°25' W 070°50'2 4.7
2018-Feb-15 16:30N 42°23' W 070°52'510.0
2018-Feb-15 15:59N 42°20' W 070°57'4 8.9
2018-Feb-15 15:30N 42°22' W 071°03'  
Track history (hours):
 
Tides and Currents Weather Stations Pressure Air Temp Water Temp Dewpoint Dewpoint Depression Visibility Wind Speed Wind Dir Waves Ship Positions

Justice

Owner: Boston Towing & Transportation, Boston, MA. More information available from US FCC via Universal Licensing System and Coast Guard Vessel Documentation Center.

Last reported at 2018-Feb-25 15:30 UTC. Time now 2018-Feb-25 15:59 UTC.
Position N 42°23' W 071°03'.

Length 30 m; draft 5.8 m.

Type: Tug. MMSI: 367513010.

Date/timePositionNaut miles runAvg speedWind from/ knotsBaromVisibWave heightAir tempDewpointWater temp
2018-Feb-25 15:30N 42°23' W 071°03'0 0.0
2018-Feb-25 15:00N 42°23' W 071°03'1 1.1
2018-Feb-25 14:30N 42°22' W 071°03'4 8.9
2018-Feb-25 14:00N 42°20' W 070°58'4 8.2
2018-Feb-25 13:30N 42°16' W 070°56'2 5.0
2018-Feb-25 13:00N 42°15' W 070°59'3 6.6
2018-Feb-25 12:30N 42°17' W 070°56'3 6.7
2018-Feb-25 12:00N 42°20' W 070°58'2 4.7
2018-Feb-25 11:30N 42°21' W 071°01'1 2.6
2018-Feb-25 11:00N 42°20' W 070°60'1 2.7
2018-Feb-25 10:30N 42°21' W 071°01'0 0.5
2018-Feb-25 10:00N 42°21' W 071°02'0 0.0
2018-Feb-25 09:30N 42°21' W 071°02'0 0.9
2018-Feb-25 09:00N 42°21' W 071°02'2 4.1
2018-Feb-25 08:31N 42°23' W 071°02'1 1.9
2018-Feb-25 08:00N 42°24' W 071°01'1 1.0
2018-Feb-25 07:30N 42°23' W 071°01'1 2.5
2018-Feb-25 07:00N 42°23' W 071°03'0 0.0
2018-Feb-25 06:30N 42°23' W 071°03'0 0.0
2018-Feb-25 06:00N 42°23' W 071°03'0 0.0
2018-Feb-25 05:31N 42°23' W 071°03'0 0.0
2018-Feb-25 05:00N 42°23' W 071°03'0 0.0
2018-Feb-25 04:30N 42°23' W 071°03'0 0.0
2018-Feb-25 04:00N 42°23' W 071°03'0 0.0
2018-Feb-25 03:30N 42°23' W 071°03'0 0.0
2018-Feb-25 03:00N 42°23' W 071°03'0 0.0
2018-Feb-25 02:30N 42°23' W 071°03'0 0.0
2018-Feb-25 02:00N 42°23' W 071°03'0 0.0
2018-Feb-25 01:30N 42°23' W 071°03'0 0.0
2018-Feb-25 01:00N 42°23' W 071°03'0 0.2
2018-Feb-25 00:30N 42°23' W 071°03'1 1.7
2018-Feb-25 00:01N 42°23' W 071°02'1 2.8
2018-Feb-24 23:30N 42°22' W 071°03'2 3.6
2018-Feb-24 23:00N 42°21' W 071°01'0 0.5
2018-Feb-24 22:30N 42°21' W 071°01'3 5.0
2018-Feb-24 22:00N 42°23' W 071°03'0 0.0
2018-Feb-24 21:30N 42°23' W 071°03'0 0.0
2018-Feb-24 21:00N 42°23' W 071°03'0 0.0
2018-Feb-24 20:30N 42°23' W 071°03'0 0.0
2018-Feb-24 20:00N 42°23' W 071°03'0 0.0
2018-Feb-24 19:30N 42°23' W 071°03'0 0.0
2018-Feb-24 19:00N 42°23' W 071°03'0 0.0
2018-Feb-24 18:28N 42°23' W 071°03'0 0.0
2018-Feb-24 18:00N 42°23' W 071°03'0 0.1
2018-Feb-24 17:30N 42°23' W 071°03'0 0.0
2018-Feb-24 17:00N 42°23' W 071°03'0 0.0
2018-Feb-24 16:30N 42°23' W 071°03'0 0.1
2018-Feb-24 16:00N 42°23' W 071°03'1 1.5
2018-Feb-24 15:30N 42°22' W 071°03'4 6.9
2018-Feb-24 15:00N 42°20' W 070°59'4 8.9
2018-Feb-24 14:30N 42°19' W 070°53'4 7.5
2018-Feb-24 14:00N 42°16' W 070°56'2 4.6
2018-Feb-24 13:30N 42°14' W 070°58'1 1.0
2018-Feb-24 13:00N 42°15' W 070°58'4 8.6
2018-Feb-24 12:30N 42°19' W 070°55'4 7.8
2018-Feb-24 12:00N 42°20' W 071°00'1 1.4
2018-Feb-24 11:30N 42°21' W 071°01'1 2.5
2018-Feb-24 11:00N 42°20' W 070°60'2 3.2
2018-Feb-24 10:30N 42°21' W 071°02'0 0.5
2018-Feb-24 10:00N 42°21' W 071°01'3 5.3
2018-Feb-24 09:30N 42°23' W 071°03'2 3.2
2018-Feb-24 09:00N 42°24' W 071°01'1 2.9
2018-Feb-24 08:30N 42°23' W 071°02'0 0.6
2018-Feb-24 08:00N 42°23' W 071°03'0 0.0
2018-Feb-24 07:30N 42°23' W 071°03'0 0.0
2018-Feb-24 07:00N 42°23' W 071°03'0 0.0
2018-Feb-24 06:30N 42°23' W 071°03'0 0.0
2018-Feb-24 06:00N 42°23' W 071°03'0 0.0
2018-Feb-24 05:30N 42°23' W 071°03'0 0.0
2018-Feb-24 05:00N 42°23' W 071°03'0 0.0
2018-Feb-24 04:30N 42°23' W 071°03'0 0.6
2018-Feb-24 04:00N 42°23' W 071°03'0 0.5
2018-Feb-24 03:30N 42°23' W 071°03'0 0.4
2018-Feb-24 03:00N 42°23' W 071°03'0 0.4
2018-Feb-24 02:30N 42°23' W 071°03'0 0.0
2018-Feb-24 02:00N 42°23' W 071°03'0 0.0
2018-Feb-24 01:30N 42°23' W 071°03'0 0.0
2018-Feb-24 01:00N 42°23' W 071°03'0 0.0
2018-Feb-24 00:30N 42°23' W 071°03'0 0.0
2018-Feb-24 00:00N 42°23' W 071°03'0 0.0
2018-Feb-23 23:30N 42°23' W 071°03'0 0.0
2018-Feb-23 23:00N 42°23' W 071°03'0 0.0
2018-Feb-23 22:31N 42°23' W 071°03'1 2.8
2018-Feb-23 22:00N 42°21' W 071°02'5 9.9
2018-Feb-23 21:30N 42°20' W 070°56'4 8.4
2018-Feb-23 21:00N 42°15' W 070°56'2 3.1
2018-Feb-23 20:30N 42°15' W 070°58'0 0.0
2018-Feb-23 20:00N 42°15' W 070°58'0 0.0
2018-Feb-23 19:30N 42°15' W 070°58'1 1.0
2018-Feb-23 19:00N 42°15' W 070°58'0 0.4
2018-Feb-23 18:30N 42°15' W 070°58'0 0.2
2018-Feb-23 18:00N 42°15' W 070°58'4 8.5
2018-Feb-23 17:30N 42°19' W 070°55'4 7.0
2018-Feb-23 17:00N 42°20' W 070°60'3 6.9
2018-Feb-23 16:30N 42°23' W 071°03'0 0.0
2018-Feb-23 16:00N 42°23' W 071°03'0 0.0
2018-Feb-23 15:30N 42°23' W 071°03'0 0.0
2018-Feb-23 15:01N 42°23' W 071°03'1 2.7
2018-Feb-23 14:30N 42°24' W 071°01'0 0.6
2018-Feb-23 14:00N 42°24' W 071°01'0 0.6
2018-Feb-23 13:31N 42°24' W 071°01'0 0.0
2018-Feb-23 13:00N 42°24' W 071°01'2 3.0
2018-Feb-23 12:30N 42°23' W 071°03'0 0.9
2018-Feb-23 12:00N 42°22' W 071°03'0 1.0
2018-Feb-23 11:30N 42°23' W 071°03'0 0.0
2018-Feb-23 11:00N 42°23' W 071°03'0 0.0
2018-Feb-23 10:30N 42°23' W 071°03'0 0.0
2018-Feb-23 10:00N 42°23' W 071°03'0 0.0
2018-Feb-23 09:30N 42°23' W 071°03'0 0.0
2018-Feb-23 09:00N 42°23' W 071°03'0 0.0
2018-Feb-23 08:30N 42°23' W 071°03'0 0.0
2018-Feb-23 08:00N 42°23' W 071°03'0 0.0
2018-Feb-23 07:30N 42°23' W 071°03'0 0.0
2018-Feb-23 07:01N 42°23' W 071°03'0 0.0
2018-Feb-23 06:30N 42°23' W 071°03'0 0.0
2018-Feb-23 06:00N 42°23' W 071°03'0 0.0
2018-Feb-23 05:29N 42°23' W 071°03'0 0.0
2018-Feb-23 05:00N 42°23' W 071°03'0 0.0
2018-Feb-23 04:30N 42°23' W 071°03'0 0.0
2018-Feb-23 04:00N 42°23' W 071°03'0 0.0
2018-Feb-23 03:30N 42°23' W 071°03'0 0.0
2018-Feb-23 03:00N 42°23' W 071°03'0 0.0
2018-Feb-23 02:30N 42°23' W 071°03'0 0.0
2018-Feb-23 02:00N 42°23' W 071°03'0 0.6
2018-Feb-23 01:30N 42°23' W 071°02'1 2.8
2018-Feb-23 01:00N 42°24' W 071°01'1 2.2
2018-Feb-23 00:31N 42°23' W 071°02'1 2.5
2018-Feb-23 00:00N 42°23' W 071°03'0 0.0
2018-Feb-22 23:30N 42°23' W 071°03'0 0.0
2018-Feb-22 23:00N 42°23' W 071°03'1 1.6
2018-Feb-22 22:30N 42°23' W 071°03'0 0.0
2018-Feb-22 21:59N 42°23' W 071°03'0 0.1
2018-Feb-22 21:30N 42°23' W 071°03'2 4.9
2018-Feb-22 21:00N 42°21' W 071°01'5 9.6
2018-Feb-22 20:30N 42°19' W 070°55'5 9.1
2018-Feb-22 20:00N 42°15' W 070°57'1 1.9
2018-Feb-22 19:30N 42°14' W 070°58'0 0.6
2018-Feb-22 18:59N 42°15' W 070°58'2 3.3
2018-Feb-22 18:30N 42°16' W 070°56'3 6.1
2018-Feb-22 18:00N 42°18' W 070°55'7 0.2
2018-Feb-21 02:30N 42°23' W 071°03'0 0.0
2018-Feb-21 02:00N 42°23' W 071°03'0 0.0
2018-Feb-21 01:30N 42°23' W 071°03'0 0.7
2018-Feb-21 01:00N 42°23' W 071°02'1 2.2
2018-Feb-21 00:30N 42°24' W 071°01'0 0.2
2018-Feb-21 00:00N 42°24' W 071°01'2 3.1
2018-Feb-20 23:30N 42°23' W 071°03'0 0.3
2018-Feb-20 23:00N 42°23' W 071°03'0 0.0
2018-Feb-20 22:30N 42°23' W 071°03'0 0.0
2018-Feb-20 22:00N 42°23' W 071°03'0 0.0
2018-Feb-20 21:30N 42°23' W 071°03'1 2.1
2018-Feb-20 21:00N 42°23' W 071°01'1 1.3
2018-Feb-20 20:30N 42°24' W 071°01'2 3.2
2018-Feb-20 20:00N 42°23' W 071°03'0 0.3
2018-Feb-20 19:29N 42°23' W 071°03'0 0.0
2018-Feb-20 19:00N 42°23' W 071°03'0 0.0
2018-Feb-20 18:30N 42°23' W 071°03'0 0.0
2018-Feb-20 18:00N 42°23' W 071°03'0 0.0
2018-Feb-20 17:30N 42°23' W 071°03'0 0.0
2018-Feb-20 16:59N 42°23' W 071°03'0 0.0
2018-Feb-20 16:28N 42°23' W 071°03'0 0.0
2018-Feb-20 15:59N 42°23' W 071°03'0 0.0
2018-Feb-20 15:25N 42°23' W 071°03'0 0.0
2018-Feb-20 14:57N 42°23' W 071°03'0 0.0
2018-Feb-20 14:30N 42°23' W 071°03'0 0.1
2018-Feb-20 14:00N 42°23' W 071°03'0 0.0
2018-Feb-20 13:30N 42°23' W 071°03'0 0.0
2018-Feb-20 13:00N 42°23' W 071°03'0 0.0
2018-Feb-20 12:30N 42°23' W 071°03'0 0.0
2018-Feb-20 12:00N 42°23' W 071°03'0 0.1
2018-Feb-20 11:30N 42°23' W 071°03'0 0.0
2018-Feb-20 11:00N 42°23' W 071°03'0 0.0
2018-Feb-20 10:30N 42°23' W 071°03'0 0.0
2018-Feb-20 10:00N 42°23' W 071°03'0 0.0
2018-Feb-20 09:30N 42°23' W 071°03'0 0.0
2018-Feb-20 09:00N 42°23' W 071°03'0 0.0
2018-Feb-20 08:30N 42°23' W 071°03'0 0.0
2018-Feb-20 08:00N 42°23' W 071°03'0 0.0
2018-Feb-20 07:30N 42°23' W 071°03'0 0.0
2018-Feb-20 07:00N 42°23' W 071°03'0 0.0
2018-Feb-20 06:30N 42°23' W 071°03'0 0.0
2018-Feb-20 06:00N 42°23' W 071°03'3 5.0
2018-Feb-20 05:29N 42°21' W 071°01'0 0.4
2018-Feb-20 04:54N 42°21' W 071°01'0 0.0
2018-Feb-20 01:43N 42°21' W 071°01'2 7.5
2018-Feb-20 01:30N 42°22' W 071°03'1 1.7
2018-Feb-20 00:58N 42°23' W 071°03'0 0.0
2018-Feb-20 00:30N 42°23' W 071°03'0 0.0
2018-Feb-20 00:00N 42°23' W 071°03'0 0.0
2018-Feb-19 23:30N 42°23' W 071°03'0 0.0
2018-Feb-19 23:00N 42°23' W 071°03'0 0.0
2018-Feb-19 22:30N 42°23' W 071°03'0 0.0
2018-Feb-19 21:59N 42°23' W 071°03'0 0.0
2018-Feb-19 21:30N 42°23' W 071°03'0 0.0
2018-Feb-19 21:00N 42°23' W 071°03'0 0.0
2018-Feb-19 20:30N 42°23' W 071°03'0 0.0
2018-Feb-19 20:00N 42°23' W 071°03'0 0.0
2018-Feb-19 19:30N 42°23' W 071°03'1 1.3
2018-Feb-19 19:00N 42°22' W 071°03'0 0.3
2018-Feb-19 18:30N 42°22' W 071°03'0 0.1
2018-Feb-19 18:00N 42°22' W 071°03'1 1.5
2018-Feb-19 17:30N 42°23' W 071°03'0 0.0
2018-Feb-19 17:00N 42°23' W 071°03'2 3.3
2018-Feb-19 16:30N 42°24' W 071°01'0 0.6
2018-Feb-19 16:00N 42°24' W 071°01'1 2.9
2018-Feb-19 15:30N 42°23' W 071°03'2 3.3
2018-Feb-19 15:00N 42°21' W 071°02'2 3.1
2018-Feb-19 14:30N 42°23' W 071°03'0 0.0
2018-Feb-19 14:00N 42°23' W 071°03'0 0.0
2018-Feb-19 13:30N 42°23' W 071°03'0 0.0
2018-Feb-19 12:59N 42°23' W 071°03'0 0.0
2018-Feb-19 12:30N 42°23' W 071°03'0 0.0
2018-Feb-19 12:00N 42°23' W 071°03'0 0.0
2018-Feb-19 11:30N 42°23' W 071°03'0 0.0
2018-Feb-19 11:00N 42°23' W 071°03'0 0.0
2018-Feb-19 10:30N 42°23' W 071°03'0 0.0
2018-Feb-19 09:59N 42°23' W 071°03'0 0.0
2018-Feb-19 09:30N 42°23' W 071°03'0 0.0
2018-Feb-19 09:00N 42°23' W 071°03'0 0.0
2018-Feb-19 08:30N 42°23' W 071°03'0 0.0
2018-Feb-19 08:00N 42°23' W 071°03'0 0.0
2018-Feb-19 07:30N 42°23' W 071°03'0 0.0
2018-Feb-19 07:00N 42°23' W 071°03'0 0.0
2018-Feb-19 06:30N 42°23' W 071°03'0 0.0
2018-Feb-19 06:00N 42°23' W 071°03'3 5.0
2018-Feb-19 05:30N 42°21' W 071°01'1 1.8
2018-Feb-19 05:00N 42°20' W 070°60'1 1.2
2018-Feb-19 04:30N 42°20' W 071°01'0 0.7
2018-Feb-19 04:00N 42°21' W 071°01'3 5.0
2018-Feb-19 03:30N 42°23' W 071°03'0 0.0
2018-Feb-19 03:00N 42°23' W 071°03'0 0.0
2018-Feb-19 02:30N 42°23' W 071°03'0 0.0
2018-Feb-19 02:00N 42°23' W 071°03'0 0.0
2018-Feb-19 01:30N 42°23' W 071°03'0 0.0
2018-Feb-19 01:00N 42°23' W 071°03'0 0.0
2018-Feb-19 00:30N 42°23' W 071°03'0 0.0
2018-Feb-19 00:00N 42°23' W 071°03'0 0.0
2018-Feb-18 23:30N 42°23' W 071°03'0 0.0
2018-Feb-18 23:00N 42°23' W 071°03'0 0.0
2018-Feb-18 22:30N 42°23' W 071°03'0 0.0
2018-Feb-18 22:00N 42°23' W 071°03'0 0.0
2018-Feb-18 21:30N 42°23' W 071°03'0 0.0
2018-Feb-18 21:00N 42°23' W 071°03'0 0.0
2018-Feb-18 20:30N 42°23' W 071°03'0 0.0
2018-Feb-18 20:00N 42°23' W 071°03'0 0.0
2018-Feb-18 19:30N 42°23' W 071°03'0 0.0
2018-Feb-18 19:00N 42°23' W 071°03'0 0.0
2018-Feb-18 18:30N 42°23' W 071°03'0 0.0
2018-Feb-18 18:00N 42°23' W 071°03'1 2.0
2018-Feb-18 17:30N 42°23' W 071°04'0 0.0
2018-Feb-18 17:00N 42°23' W 071°04'0 0.1
2018-Feb-18 16:30N 42°23' W 071°04'1 2.2
2018-Feb-18 16:00N 42°22' W 071°03'0 0.9
2018-Feb-18 15:30N 42°23' W 071°03'0 0.0
2018-Feb-18 15:00N 42°23' W 071°03'0 0.0
2018-Feb-18 14:30N 42°23' W 071°03'1 1.7
2018-Feb-18 14:00N 42°23' W 071°04'0 0.3
2018-Feb-18 13:30N 42°23' W 071°04'1 2.0
2018-Feb-18 13:00N 42°23' W 071°03'0 0.0
2018-Feb-18 12:30N 42°23' W 071°03'0 0.0
2018-Feb-18 12:00N 42°23' W 071°03'0 0.0
2018-Feb-18 11:30N 42°23' W 071°03'0 0.0
2018-Feb-18 11:00N 42°23' W 071°03'0 0.0
2018-Feb-18 10:30N 42°23' W 071°03'0 0.0
2018-Feb-18 10:00N 42°23' W 071°03'0 0.0
2018-Feb-18 09:30N 42°23' W 071°03'0 0.0
2018-Feb-18 09:00N 42°23' W 071°03'0 0.0
2018-Feb-18 08:30N 42°23' W 071°03'0 0.0
2018-Feb-18 08:00N 42°23' W 071°03'0 0.0
2018-Feb-18 07:30N 42°23' W 071°03'0 0.0
2018-Feb-18 07:00N 42°23' W 071°03'0 0.0
2018-Feb-18 06:30N 42°23' W 071°03'3 4.8
2018-Feb-18 05:59N 42°21' W 071°01'2 2.9
2018-Feb-18 05:26N 42°20' W 070°59'1 2.0
2018-Feb-18 04:43N 42°21' W 070°58'0 0.0
2018-Feb-18 04:29N 42°21' W 070°58'2 4.9
2018-Feb-18 04:00N 42°21' W 071°01'1 2.3
2018-Feb-18 03:29N 42°21' W 071°02'1 3.1
2018-Feb-18 03:00N 42°23' W 071°03'0 0.0
2018-Feb-18 02:30N 42°23' W 071°03'0 0.0
2018-Feb-18 02:00N 42°23' W 071°03'0 0.0
2018-Feb-18 01:30N 42°23' W 071°03'0 0.0
2018-Feb-18 01:00N 42°23' W 071°03'0 0.9
2018-Feb-18 00:30N 42°23' W 071°03'0 0.3
2018-Feb-18 00:00N 42°23' W 071°03'2 4.4
2018-Feb-17 23:30N 42°21' W 071°02'4 7.5
2018-Feb-17 22:59N 42°20' W 070°57'4 9.3
2018-Feb-17 22:30N 42°16' W 070°56'2 2.7
2018-Feb-17 21:51N 42°15' W 070°58'0 0.1
2018-Feb-17 19:59N 42°15' W 070°58'4 7.0
2018-Feb-17 19:23N 42°19' W 070°56'3 6.7
2018-Feb-17 19:00N 42°20' W 070°59'2 2.8
2018-Feb-17 18:14N 42°21' W 071°01'0 0.0
2018-Feb-17 17:50N 42°21' W 071°01'0 0.0
2018-Feb-17 17:29N 42°21' W 071°01'0 0.0
2018-Feb-17 16:51N 42°21' W 071°01'0 0.7
2018-Feb-17 16:28N 42°21' W 071°01'2 3.5
2018-Feb-17 16:00N 42°20' W 070°59'2 3.4
2018-Feb-17 15:30N 42°21' W 071°01'0 0.5
2018-Feb-17 15:00N 42°21' W 071°01'2 3.1
2018-Feb-17 14:29N 42°20' W 070°59'4 7.6
2018-Feb-17 14:00N 42°22' W 071°03'1 2.5
2018-Feb-17 13:30N 42°23' W 071°04'0 0.1
2018-Feb-17 13:00N 42°23' W 071°04'1 2.3
2018-Feb-17 12:30N 42°22' W 071°03'0 0.8
2018-Feb-17 12:00N 42°23' W 071°03'0 0.0
2018-Feb-17 11:30N 42°23' W 071°03'0 0.1
2018-Feb-17 11:00N 42°23' W 071°03'2 4.1
2018-Feb-17 10:30N 42°21' W 071°01'2 4.1
2018-Feb-17 09:55N 42°20' W 070°58'4 8.9
2018-Feb-17 09:30N 42°22' W 071°03'2 4.0
2018-Feb-17 08:59N 42°24' W 071°01'0 0.5
2018-Feb-17 08:30N 42°24' W 071°01'1 2.5
2018-Feb-17 08:00N 42°23' W 071°02'0 0.7
2018-Feb-17 07:30N 42°23' W 071°03'1 2.7
2018-Feb-17 07:00N 42°24' W 071°01'1 2.6
2018-Feb-17 06:31N 42°23' W 071°03'3 6.1
2018-Feb-17 06:00N 42°20' W 071°00'2 2.8
2018-Feb-17 05:26N 42°20' W 070°58'0 0.1
2018-Feb-17 04:43N 42°20' W 070°58'0 0.1
2018-Feb-17 04:30N 42°20' W 070°58'0 0.0
2018-Feb-17 03:58N 42°20' W 070°58'0 0.1
2018-Feb-17 03:30N 42°20' W 070°58'0 0.0
2018-Feb-17 03:00N 42°20' W 070°58'0 0.0
2018-Feb-17 02:30N 42°20' W 070°58'0 0.0
2018-Feb-17 01:55N 42°20' W 070°58'0 0.1
2018-Feb-17 01:30N 42°20' W 070°58'0 0.0
2018-Feb-17 00:29N 42°20' W 070°58'0 0.2
2018-Feb-17 00:00N 42°20' W 070°58'3 6.2
2018-Feb-16 23:30N 42°21' W 071°02'2 3.8
2018-Feb-16 23:00N 42°23' W 071°03'0 0.0
2018-Feb-16 22:29N 42°23' W 071°03'0 0.0
2018-Feb-16 22:00N 42°23' W 071°03'0 0.6
2018-Feb-16 21:30N 42°23' W 071°03'1 2.8
2018-Feb-16 21:00N 42°24' W 071°01'1 1.3
2018-Feb-16 20:30N 42°23' W 071°02'2 3.3
2018-Feb-16 20:00N 42°21' W 071°02'1 2.9
2018-Feb-16 19:30N 42°23' W 071°03'2 4.9
2018-Feb-16 19:00N 42°21' W 071°01'0 0.2
2018-Feb-16 18:28N 42°21' W 071°01'1 1.2
2018-Feb-16 18:00N 42°20' W 071°00'1 1.7
2018-Feb-16 17:30N 42°20' W 070°59'2 3.8
2018-Feb-16 17:00N 42°21' W 071°02'3 5.5
2018-Feb-16 16:30N 42°23' W 071°04'0 0.1
2018-Feb-16 16:00N 42°23' W 071°04'0 0.0
2018-Feb-16 15:30N 42°23' W 071°04'1 1.6
2018-Feb-16 15:00N 42°23' W 071°03'2 3.9
2018-Feb-16 14:30N 42°21' W 071°02'3 6.5
2018-Feb-16 14:01N 42°20' W 070°58'3 5.2
2018-Feb-16 13:29N 42°21' W 071°01'2 4.3
2018-Feb-16 13:00N 42°23' W 071°03'0 0.0
2018-Feb-16 12:30N 42°23' W 071°03'1 1.6
2018-Feb-16 11:59N 42°23' W 071°02'1 1.5
2018-Feb-16 11:30N 42°23' W 071°02'1 1.1
2018-Feb-16 11:00N 42°23' W 071°03'1 1.6
2018-Feb-16 10:30N 42°22' W 071°03'1 2.1
2018-Feb-16 10:00N 42°23' W 071°04'0 0.3
2018-Feb-16 09:30N 42°23' W 071°04'0 0.1
2018-Feb-16 09:00N 42°23' W 071°04'1 2.0
2018-Feb-16 08:30N 42°23' W 071°03'0 0.0
2018-Feb-16 08:00N 42°23' W 071°03'0 0.0
2018-Feb-16 07:30N 42°23' W 071°03'0 0.0
2018-Feb-16 07:00N 42°23' W 071°03'0 0.0
2018-Feb-16 06:30N 42°23' W 071°03'0 0.0
2018-Feb-16 06:00N 42°23' W 071°03'0 0.0
2018-Feb-16 05:30N 42°23' W 071°03'0 0.0
2018-Feb-16 05:00N 42°23' W 071°03'0 0.0
2018-Feb-16 04:30N 42°23' W 071°03'0 0.0
2018-Feb-16 04:00N 42°23' W 071°03'0 0.0
2018-Feb-16 03:30N 42°23' W 071°03'0 0.0
2018-Feb-16 03:00N 42°23' W 071°03'0 0.0
2018-Feb-16 02:30N 42°23' W 071°03'0 0.0
2018-Feb-16 02:00N 42°23' W 071°03'0 0.0
2018-Feb-16 01:30N 42°23' W 071°03'0 0.0
2018-Feb-16 01:00N 42°23' W 071°03'0 0.6
2018-Feb-16 00:30N 42°23' W 071°03'0 0.0
2018-Feb-16 00:00N 42°23' W 071°03'0 0.0
2018-Feb-15 23:30N 42°23' W 071°03'0 0.5
2018-Feb-15 23:00N 42°23' W 071°03'0 0.2
2018-Feb-15 22:30N 42°23' W 071°03'0 0.0
2018-Feb-15 22:00N 42°23' W 071°03'0 0.0
2018-Feb-15 21:30N 42°23' W 071°03'0 0.0
2018-Feb-15 21:00N 42°23' W 071°03'0 0.0
2018-Feb-15 20:30N 42°23' W 071°03'0 0.0
2018-Feb-15 20:00N 42°23' W 071°03'3 6.0
2018-Feb-15 19:30N 42°20' W 071°00'4 8.5
2018-Feb-15 19:00N 42°21' W 070°55'4 8.8
2018-Feb-15 18:30N 42°24' W 070°51'1 2.5
2018-Feb-15 18:00N 42°25' W 070°50'0 0.3
2018-Feb-15 17:30N 42°25' W 070°50'0 0.2
2018-Feb-15 17:00N 42°25' W 070°50'2 4.7
2018-Feb-15 16:30N 42°23' W 070°52'510.0
2018-Feb-15 15:59N 42°20' W 070°57'4 8.9
2018-Feb-15 15:30N 42°22' W 071°03'  

Dump ship's entire track history